sensor_id;sensor_type;location;lat;lon;timestamp;P1;durP1;ratioP1;P2;durP2;ratioP2
57317;SDS011;43157;50.982;18.132;2023-03-05T00:00:07;21.60;;;8.10;;
57317;SDS011;43157;50.982;18.132;2023-03-05T00:02:34;20.10;;;7.50;;
57317;SDS011;43157;50.982;18.132;2023-03-05T00:04:59;25.20;;;8.40;;
57317;SDS011;43157;50.982;18.132;2023-03-05T00:07:25;29.80;;;10.50;;
57317;SDS011;43157;50.982;18.132;2023-03-05T00:09:51;25.10;;;9.60;;
57317;SDS011;43157;50.982;18.132;2023-03-05T00:12:16;27.10;;;10.00;;
57317;SDS011;43157;50.982;18.132;2023-03-05T00:14:42;27.00;;;9.60;;
57317;SDS011;43157;50.982;18.132;2023-03-05T00:17:07;27.40;;;9.70;;
57317;SDS011;43157;50.982;18.132;2023-03-05T00:19:33;45.40;;;17.10;;
57317;SDS011;43157;50.982;18.132;2023-03-05T00:21:58;82.80;;;33.70;;
57317;SDS011;43157;50.982;18.132;2023-03-05T00:24:24;161.20;;;54.60;;
57317;SDS011;43157;50.982;18.132;2023-03-05T00:26:50;51.30;;;18.30;;
57317;SDS011;43157;50.982;18.132;2023-03-05T00:29:16;89.90;;;31.20;;
57317;SDS011;43157;50.982;18.132;2023-03-05T00:31:43;76.80;;;20.80;;
57317;SDS011;43157;50.982;18.132;2023-03-05T00:34:10;46.00;;;14.40;;
57317;SDS011;43157;50.982;18.132;2023-03-05T00:36:38;28.30;;;6.70;;
57317;SDS011;43157;50.982;18.132;2023-03-05T00:39:05;47.60;;;13.20;;
57317;SDS011;43157;50.982;18.132;2023-03-05T00:41:31;38.60;;;10.30;;
57317;SDS011;43157;50.982;18.132;2023-03-05T00:43:57;29.60;;;7.90;;
57317;SDS011;43157;50.982;18.132;2023-03-05T00:46:23;31.30;;;9.60;;
57317;SDS011;43157;50.982;18.132;2023-03-05T00:48:51;30.10;;;8.50;;
57317;SDS011;43157;50.982;18.132;2023-03-05T00:51:17;22.00;;;5.80;;
57317;SDS011;43157;50.982;18.132;2023-03-05T00:53:43;31.10;;;8.80;;
57317;SDS011;43157;50.982;18.132;2023-03-05T00:56:09;28.40;;;8.50;;
57317;SDS011;43157;50.982;18.132;2023-03-05T00:58:35;23.60;;;8.20;;
57317;SDS011;43157;50.982;18.132;2023-03-05T01:01:01;23.60;;;7.90;;
57317;SDS011;43157;50.982;18.132;2023-03-05T01:03:28;19.50;;;6.90;;
57317;SDS011;43157;50.982;18.132;2023-03-05T01:05:54;31.40;;;10.00;;
57317;SDS011;43157;50.982;18.132;2023-03-05T01:08:20;33.30;;;12.90;;
57317;SDS011;43157;50.982;18.132;2023-03-05T01:10:46;23.20;;;7.50;;
57317;SDS011;43157;50.982;18.132;2023-03-05T01:13:11;21.40;;;8.20;;
57317;SDS011;43157;50.982;18.132;2023-03-05T01:15:37;16.90;;;5.20;;
57317;SDS011;43157;50.982;18.132;2023-03-05T01:18:03;16.90;;;5.60;;
57317;SDS011;43157;50.982;18.132;2023-03-05T01:20:29;21.90;;;7.20;;
57317;SDS011;43157;50.982;18.132;2023-03-05T01:22:55;19.20;;;6.10;;
57317;SDS011;43157;50.982;18.132;2023-03-05T01:25:23;25.00;;;7.00;;
57317;SDS011;43157;50.982;18.132;2023-03-05T01:27:49;19.80;;;5.80;;
57317;SDS011;43157;50.982;18.132;2023-03-05T01:30:15;18.10;;;6.00;;
57317;SDS011;43157;50.982;18.132;2023-03-05T01:32:41;15.30;;;4.50;;
57317;SDS011;43157;50.982;18.132;2023-03-05T01:35:07;20.50;;;6.20;;
57317;SDS011;43157;50.982;18.132;2023-03-05T01:37:35;17.90;;;5.30;;
57317;SDS011;43157;50.982;18.132;2023-03-05T01:40:00;15.50;;;3.80;;
57317;SDS011;43157;50.982;18.132;2023-03-05T01:42:26;15.10;;;4.50;;
57317;SDS011;43157;50.982;18.132;2023-03-05T01:44:59;15.50;;;3.80;;
57317;SDS011;43157;50.982;18.132;2023-03-05T01:47:27;15.80;;;3.50;;
57317;SDS011;43157;50.982;18.132;2023-03-05T01:49:52;9.30;;;2.50;;
57317;SDS011;43157;50.982;18.132;2023-03-05T01:52:19;13.70;;;4.10;;
57317;SDS011;43157;50.982;18.132;2023-03-05T01:54:47;14.00;;;3.70;;
57317;SDS011;43157;50.982;18.132;2023-03-05T01:57:25;11.00;;;3.20;;
57317;SDS011;43157;50.982;18.132;2023-03-05T01:59:58;13.70;;;3.00;;
57317;SDS011;43157;50.982;18.132;2023-03-05T02:02:31;15.60;;;4.50;;
57317;SDS011;43157;50.982;18.132;2023-03-05T02:05:01;13.50;;;3.50;;
57317;SDS011;43157;50.982;18.132;2023-03-05T02:07:30;13.80;;;3.60;;
57317;SDS011;43157;50.982;18.132;2023-03-05T02:09:56;14.40;;;3.10;;
57317;SDS011;43157;50.982;18.132;2023-03-05T02:12:22;15.40;;;3.50;;
57317;SDS011;43157;50.982;18.132;2023-03-05T02:14:49;16.90;;;4.10;;
57317;SDS011;43157;50.982;18.132;2023-03-05T02:17:22;18.10;;;4.10;;
57317;SDS011;43157;50.982;18.132;2023-03-05T02:19:51;14.50;;;3.70;;
57317;SDS011;43157;50.982;18.132;2023-03-05T02:22:19;11.00;;;2.90;;
57317;SDS011;43157;50.982;18.132;2023-03-05T02:24:47;10.90;;;2.10;;
57317;SDS011;43157;50.982;18.132;2023-03-05T02:27:13;14.30;;;2.40;;
57317;SDS011;43157;50.982;18.132;2023-03-05T02:29:44;12.00;;;2.90;;
57317;SDS011;43157;50.982;18.132;2023-03-05T02:32:11;12.10;;;3.00;;
57317;SDS011;43157;50.982;18.132;2023-03-05T02:34:37;11.60;;;2.60;;
57317;SDS011;43157;50.982;18.132;2023-03-05T02:37:03;11.20;;;2.30;;
57317;SDS011;43157;50.982;18.132;2023-03-05T02:39:33;13.20;;;2.20;;
57317;SDS011;43157;50.982;18.132;2023-03-05T02:41:59;10.90;;;2.50;;
57317;SDS011;43157;50.982;18.132;2023-03-05T02:44:26;10.60;;;2.20;;
57317;SDS011;43157;50.982;18.132;2023-03-05T02:46:51;13.30;;;3.50;;
57317;SDS011;43157;50.982;18.132;2023-03-05T02:49:17;10.10;;;1.90;;
57317;SDS011;43157;50.982;18.132;2023-03-05T02:51:43;8.70;;;1.70;;
57317;SDS011;43157;50.982;18.132;2023-03-05T02:54:09;10.50;;;1.80;;
57317;SDS011;43157;50.982;18.132;2023-03-05T02:56:35;8.80;;;1.70;;
57317;SDS011;43157;50.982;18.132;2023-03-05T02:59:02;15.30;;;3.10;;
57317;SDS011;43157;50.982;18.132;2023-03-05T03:01:28;14.10;;;3.00;;
57317;SDS011;43157;50.982;18.132;2023-03-05T03:03:54;11.40;;;3.00;;
57317;SDS011;43157;50.982;18.132;2023-03-05T03:06:20;12.80;;;2.40;;
57317;SDS011;43157;50.982;18.132;2023-03-05T03:08:46;17.80;;;4.00;;
57317;SDS011;43157;50.982;18.132;2023-03-05T03:11:12;11.10;;;2.10;;
57317;SDS011;43157;50.982;18.132;2023-03-05T03:13:38;7.90;;;1.70;;
57317;SDS011;43157;50.982;18.132;2023-03-05T03:16:05;7.40;;;1.40;;
57317;SDS011;43157;50.982;18.132;2023-03-05T03:18:32;8.30;;;1.50;;
57317;SDS011;43157;50.982;18.132;2023-03-05T03:20:58;10.60;;;1.90;;
57317;SDS011;43157;50.982;18.132;2023-03-05T03:23:24;13.00;;;2.00;;
57317;SDS011;43157;50.982;18.132;2023-03-05T03:25:50;8.10;;;2.00;;
57317;SDS011;43157;50.982;18.132;2023-03-05T03:28:16;10.20;;;1.90;;
57317;SDS011;43157;50.982;18.132;2023-03-05T03:30:41;8.10;;;1.80;;
57317;SDS011;43157;50.982;18.132;2023-03-05T03:33:07;7.80;;;1.20;;
57317;SDS011;43157;50.982;18.132;2023-03-05T03:35:32;6.60;;;1.60;;
57317;SDS011;43157;50.982;18.132;2023-03-05T03:37:58;6.60;;;1.30;;
57317;SDS011;43157;50.982;18.132;2023-03-05T03:40:24;9.10;;;2.10;;
57317;SDS011;43157;50.982;18.132;2023-03-05T03:42:50;9.70;;;2.10;;
57317;SDS011;43157;50.982;18.132;2023-03-05T03:45:17;9.40;;;2.00;;
57317;SDS011;43157;50.982;18.132;2023-03-05T03:47:43;10.40;;;1.90;;
57317;SDS011;43157;50.982;18.132;2023-03-05T03:50:09;9.10;;;1.70;;
57317;SDS011;43157;50.982;18.132;2023-03-05T03:52:35;9.60;;;2.00;;
57317;SDS011;43157;50.982;18.132;2023-03-05T03:55:01;10.40;;;1.50;;
57317;SDS011;43157;50.982;18.132;2023-03-05T03:57:28;7.60;;;1.30;;
57317;SDS011;43157;50.982;18.132;2023-03-05T03:59:55;9.60;;;1.90;;
57317;SDS011;43157;50.982;18.132;2023-03-05T04:02:21;11.40;;;1.60;;
57317;SDS011;43157;50.982;18.132;2023-03-05T04:04:47;8.10;;;1.70;;
57317;SDS011;43157;50.982;18.132;2023-03-05T04:07:12;7.80;;;1.80;;
57317;SDS011;43157;50.982;18.132;2023-03-05T04:09:38;10.90;;;1.70;;
57317;SDS011;43157;50.982;18.132;2023-03-05T04:12:04;9.00;;;2.40;;
57317;SDS011;43157;50.982;18.132;2023-03-05T04:14:31;8.50;;;2.10;;
57317;SDS011;43157;50.982;18.132;2023-03-05T04:16:57;9.10;;;1.60;;
57317;SDS011;43157;50.982;18.132;2023-03-05T04:19:22;8.70;;;1.70;;
57317;SDS011;43157;50.982;18.132;2023-03-05T04:21:48;8.80;;;1.60;;
57317;SDS011;43157;50.982;18.132;2023-03-05T04:24:14;9.00;;;1.60;;
57317;SDS011;43157;50.982;18.132;2023-03-05T04:26:40;8.60;;;1.30;;
57317;SDS011;43157;50.982;18.132;2023-03-05T04:29:05;8.80;;;1.50;;
57317;SDS011;43157;50.982;18.132;2023-03-05T04:31:31;7.90;;;1.10;;
57317;SDS011;43157;50.982;18.132;2023-03-05T04:33:58;9.00;;;1.60;;
57317;SDS011;43157;50.982;18.132;2023-03-05T04:36:24;9.30;;;1.70;;
57317;SDS011;43157;50.982;18.132;2023-03-05T04:38:50;12.30;;;2.10;;
57317;SDS011;43157;50.982;18.132;2023-03-05T04:41:15;9.40;;;1.70;;
57317;SDS011;43157;50.982;18.132;2023-03-05T04:43:41;8.30;;;1.90;;
57317;SDS011;43157;50.982;18.132;2023-03-05T04:46:08;8.60;;;1.60;;
57317;SDS011;43157;50.982;18.132;2023-03-05T04:48:33;8.50;;;1.80;;
57317;SDS011;43157;50.982;18.132;2023-03-05T04:50:59;7.60;;;2.00;;
57317;SDS011;43157;50.982;18.132;2023-03-05T04:53:25;10.20;;;2.10;;
57317;SDS011;43157;50.982;18.132;2023-03-05T04:55:52;10.50;;;2.00;;
57317;SDS011;43157;50.982;18.132;2023-03-05T04:58:19;11.80;;;1.80;;
57317;SDS011;43157;50.982;18.132;2023-03-05T05:13:59;9.90;;;2.70;;
57317;SDS011;43157;50.982;18.132;2023-03-05T05:16:26;12.80;;;3.00;;
57317;SDS011;43157;50.982;18.132;2023-03-05T05:18:54;9.30;;;2.20;;
57317;SDS011;43157;50.982;18.132;2023-03-05T05:21:20;10.20;;;1.90;;
57317;SDS011;43157;50.982;18.132;2023-03-05T05:23:46;8.60;;;1.90;;
57317;SDS011;43157;50.982;18.132;2023-03-05T05:26:12;9.40;;;2.00;;
57317;SDS011;43157;50.982;18.132;2023-03-05T05:28:41;9.00;;;2.20;;
57317;SDS011;43157;50.982;18.132;2023-03-05T05:31:08;10.80;;;2.10;;
57317;SDS011;43157;50.982;18.132;2023-03-05T05:33:35;11.40;;;2.30;;
57317;SDS011;43157;50.982;18.132;2023-03-05T05:36:05;12.50;;;2.00;;
57317;SDS011;43157;50.982;18.132;2023-03-05T05:38:32;10.20;;;2.80;;
57317;SDS011;43157;50.982;18.132;2023-03-05T05:41:02;10.60;;;3.10;;
57317;SDS011;43157;50.982;18.132;2023-03-05T05:43:35;11.90;;;2.40;;
57317;SDS011;43157;50.982;18.132;2023-03-05T05:46:02;13.20;;;2.50;;
57317;SDS011;43157;50.982;18.132;2023-03-05T05:48:31;12.00;;;3.60;;
57317;SDS011;43157;50.982;18.132;2023-03-05T05:50:57;11.10;;;2.70;;
57317;SDS011;43157;50.982;18.132;2023-03-05T05:53:24;14.60;;;2.60;;
57317;SDS011;43157;50.982;18.132;2023-03-05T05:55:50;11.10;;;2.50;;
57317;SDS011;43157;50.982;18.132;2023-03-05T05:58:16;12.40;;;2.90;;
57317;SDS011;43157;50.982;18.132;2023-03-05T06:00:42;11.60;;;2.60;;
57317;SDS011;43157;50.982;18.132;2023-03-05T06:03:08;12.30;;;2.90;;
57317;SDS011;43157;50.982;18.132;2023-03-05T06:05:34;10.80;;;2.30;;
57317;SDS011;43157;50.982;18.132;2023-03-05T06:08:00;10.50;;;2.80;;
57317;SDS011;43157;50.982;18.132;2023-03-05T06:10:25;10.50;;;2.90;;
57317;SDS011;43157;50.982;18.132;2023-03-05T06:12:51;10.70;;;2.50;;
57317;SDS011;43157;50.982;18.132;2023-03-05T06:15:19;10.20;;;2.40;;
57317;SDS011;43157;50.982;18.132;2023-03-05T06:17:45;12.40;;;2.70;;
57317;SDS011;43157;50.982;18.132;2023-03-05T06:20:12;11.10;;;2.50;;
57317;SDS011;43157;50.982;18.132;2023-03-05T06:22:38;15.30;;;3.50;;
57317;SDS011;43157;50.982;18.132;2023-03-05T06:25:05;9.10;;;2.70;;
57317;SDS011;43157;50.982;18.132;2023-03-05T06:27:33;13.60;;;2.90;;
57317;SDS011;43157;50.982;18.132;2023-03-05T06:29:59;10.60;;;2.70;;
57317;SDS011;43157;50.982;18.132;2023-03-05T06:32:25;9.20;;;2.50;;
57317;SDS011;43157;50.982;18.132;2023-03-05T06:34:51;13.40;;;2.90;;
57317;SDS011;43157;50.982;18.132;2023-03-05T06:37:17;11.80;;;3.50;;
57317;SDS011;43157;50.982;18.132;2023-03-05T06:39:43;13.40;;;3.30;;
57317;SDS011;43157;50.982;18.132;2023-03-05T06:42:09;14.70;;;3.20;;
57317;SDS011;43157;50.982;18.132;2023-03-05T06:44:38;10.30;;;2.60;;
57317;SDS011;43157;50.982;18.132;2023-03-05T06:47:08;10.20;;;2.80;;
57317;SDS011;43157;50.982;18.132;2023-03-05T06:49:35;11.10;;;2.50;;
57317;SDS011;43157;50.982;18.132;2023-03-05T06:52:02;10.40;;;2.70;;
57317;SDS011;43157;50.982;18.132;2023-03-05T06:54:28;10.80;;;3.10;;
57317;SDS011;43157;50.982;18.132;2023-03-05T06:56:54;10.40;;;3.00;;
57317;SDS011;43157;50.982;18.132;2023-03-05T06:59:20;10.80;;;3.70;;
57317;SDS011;43157;50.982;18.132;2023-03-05T07:01:46;14.00;;;3.10;;
57317;SDS011;43157;50.982;18.132;2023-03-05T07:04:12;14.00;;;3.20;;
57317;SDS011;43157;50.982;18.132;2023-03-05T07:06:39;9.60;;;2.70;;
57317;SDS011;43157;50.982;18.132;2023-03-05T07:09:06;10.80;;;2.70;;
57317;SDS011;43157;50.982;18.132;2023-03-05T07:11:34;11.00;;;2.70;;
57317;SDS011;43157;50.982;18.132;2023-03-05T07:14:00;9.50;;;2.50;;
57317;SDS011;43157;50.982;18.132;2023-03-05T07:16:27;10.60;;;2.80;;
57317;SDS011;43157;50.982;18.132;2023-03-05T07:18:55;8.30;;;2.60;;
57317;SDS011;43157;50.982;18.132;2023-03-05T07:21:26;9.10;;;2.10;;
57317;SDS011;43157;50.982;18.132;2023-03-05T07:23:55;12.30;;;2.30;;
57317;SDS011;43157;50.982;18.132;2023-03-05T07:26:22;8.50;;;2.00;;
57317;SDS011;43157;50.982;18.132;2023-03-05T07:28:49;12.40;;;2.90;;
57317;SDS011;43157;50.982;18.132;2023-03-05T07:31:17;9.50;;;2.00;;
57317;SDS011;43157;50.982;18.132;2023-03-05T07:33:44;9.50;;;2.50;;
57317;SDS011;43157;50.982;18.132;2023-03-05T07:36:11;10.90;;;2.40;;
57317;SDS011;43157;50.982;18.132;2023-03-05T07:38:38;11.00;;;2.30;;
57317;SDS011;43157;50.982;18.132;2023-03-05T07:41:08;13.60;;;2.80;;
57317;SDS011;43157;50.982;18.132;2023-03-05T07:43:35;9.50;;;2.50;;
57317;SDS011;43157;50.982;18.132;2023-03-05T07:46:05;9.80;;;2.60;;
57317;SDS011;43157;50.982;18.132;2023-03-05T07:48:33;13.50;;;2.60;;
57317;SDS011;43157;50.982;18.132;2023-03-05T07:51:00;9.90;;;2.40;;
57317;SDS011;43157;50.982;18.132;2023-03-05T07:53:26;14.30;;;3.30;;
57317;SDS011;43157;50.982;18.132;2023-03-05T07:55:52;10.40;;;2.80;;
57317;SDS011;43157;50.982;18.132;2023-03-05T07:58:18;10.60;;;2.50;;
57317;SDS011;43157;50.982;18.132;2023-03-05T08:00:43;10.20;;;2.90;;
57317;SDS011;43157;50.982;18.132;2023-03-05T08:03:09;11.20;;;2.90;;
57317;SDS011;43157;50.982;18.132;2023-03-05T08:05:37;9.40;;;3.30;;
57317;SDS011;43157;50.982;18.132;2023-03-05T08:08:05;10.00;;;3.20;;
57317;SDS011;43157;50.982;18.132;2023-03-05T08:10:32;12.10;;;4.40;;
57317;SDS011;43157;50.982;18.132;2023-03-05T08:12:58;12.00;;;4.80;;
57317;SDS011;43157;50.982;18.132;2023-03-05T08:15:23;15.30;;;3.80;;
57317;SDS011;43157;50.982;18.132;2023-03-05T08:17:49;15.30;;;5.60;;
57317;SDS011;43157;50.982;18.132;2023-03-05T08:20:15;17.00;;;5.60;;
57317;SDS011;43157;50.982;18.132;2023-03-05T08:22:41;15.70;;;4.90;;
57317;SDS011;43157;50.982;18.132;2023-03-05T08:25:07;13.70;;;5.40;;
57317;SDS011;43157;50.982;18.132;2023-03-05T08:27:33;18.70;;;5.10;;
57317;SDS011;43157;50.982;18.132;2023-03-05T08:30:00;17.70;;;6.20;;
57317;SDS011;43157;50.982;18.132;2023-03-05T08:32:26;20.10;;;6.30;;
57317;SDS011;43157;50.982;18.132;2023-03-05T08:34:54;14.90;;;4.60;;
57317;SDS011;43157;50.982;18.132;2023-03-05T08:37:22;17.60;;;7.10;;
57317;SDS011;43157;50.982;18.132;2023-03-05T08:39:48;24.40;;;9.10;;
57317;SDS011;43157;50.982;18.132;2023-03-05T08:42:14;27.10;;;8.80;;
57317;SDS011;43157;50.982;18.132;2023-03-05T08:44:40;25.70;;;9.80;;
57317;SDS011;43157;50.982;18.132;2023-03-05T08:47:05;23.70;;;8.20;;
57317;SDS011;43157;50.982;18.132;2023-03-05T08:49:31;25.60;;;9.10;;
57317;SDS011;43157;50.982;18.132;2023-03-05T08:51:56;35.10;;;11.90;;
57317;SDS011;43157;50.982;18.132;2023-03-05T08:54:22;33.20;;;12.70;;
57317;SDS011;43157;50.982;18.132;2023-03-05T08:56:48;31.20;;;12.30;;
57317;SDS011;43157;50.982;18.132;2023-03-05T08:59:14;21.10;;;8.20;;
57317;SDS011;43157;50.982;18.132;2023-03-05T09:01:40;37.20;;;12.40;;
57317;SDS011;43157;50.982;18.132;2023-03-05T09:04:06;23.00;;;8.90;;
57317;SDS011;43157;50.982;18.132;2023-03-05T09:06:32;34.60;;;11.50;;
57317;SDS011;43157;50.982;18.132;2023-03-05T09:08:58;28.20;;;10.30;;
57317;SDS011;43157;50.982;18.132;2023-03-05T09:11:24;27.90;;;10.40;;
57317;SDS011;43157;50.982;18.132;2023-03-05T09:13:50;25.50;;;11.50;;
57317;SDS011;43157;50.982;18.132;2023-03-05T09:16:16;33.40;;;11.60;;
57317;SDS011;43157;50.982;18.132;2023-03-05T09:18:43;34.20;;;12.30;;
57317;SDS011;43157;50.982;18.132;2023-03-05T09:21:10;30.40;;;10.90;;
57317;SDS011;43157;50.982;18.132;2023-03-05T09:23:37;29.20;;;10.10;;
57317;SDS011;43157;50.982;18.132;2023-03-05T09:26:04;29.40;;;12.40;;
57317;SDS011;43157;50.982;18.132;2023-03-05T09:28:30;23.00;;;7.60;;
57317;SDS011;43157;50.982;18.132;2023-03-05T09:30:56;28.50;;;8.50;;
57317;SDS011;43157;50.982;18.132;2023-03-05T09:33:22;25.30;;;7.60;;
57317;SDS011;43157;50.982;18.132;2023-03-05T09:35:47;27.90;;;8.20;;
57317;SDS011;43157;50.982;18.132;2023-03-05T09:38:13;24.00;;;6.50;;
57317;SDS011;43157;50.982;18.132;2023-03-05T09:51:19;16.90;;;4.70;;
57317;SDS011;43157;50.982;18.132;2023-03-05T09:53:52;16.80;;;5.30;;
57317;SDS011;43157;50.982;18.132;2023-03-05T09:56:28;20.00;;;3.90;;
57317;SDS011;43157;50.982;18.132;2023-03-05T09:59:03;12.60;;;4.20;;
57317;SDS011;43157;50.982;18.132;2023-03-05T10:01:41;23.80;;;6.30;;
57317;SDS011;43157;50.982;18.132;2023-03-05T10:07:15;20.90;;;5.20;;
57317;SDS011;43157;50.982;18.132;2023-03-05T10:14:57;20.30;;;5.70;;
57317;SDS011;43157;50.982;18.132;2023-03-05T10:26:04;20.10;;;6.40;;
57317;SDS011;43157;50.982;18.132;2023-03-05T10:29:09;28.30;;;8.00;;
57317;SDS011;43157;50.982;18.132;2023-03-05T10:42:57;14.70;;;4.70;;
57317;SDS011;43157;50.982;18.132;2023-03-05T10:45:21;15.00;;;3.60;;
57317;SDS011;43157;50.982;18.132;2023-03-05T10:50:23;26.40;;;7.90;;
57317;SDS011;43157;50.982;18.132;2023-03-05T10:53:14;16.20;;;4.50;;
57317;SDS011;43157;50.982;18.132;2023-03-05T10:55:50;16.30;;;4.90;;
57317;SDS011;43157;50.982;18.132;2023-03-05T10:58:20;18.70;;;6.20;;
57317;SDS011;43157;50.982;18.132;2023-03-05T11:03:22;18.80;;;6.10;;
57317;SDS011;43157;50.982;18.132;2023-03-05T11:05:58;20.60;;;6.50;;
57317;SDS011;43157;50.982;18.132;2023-03-05T11:08:27;22.20;;;6.20;;
57317;SDS011;43157;50.982;18.132;2023-03-05T11:11:02;29.90;;;10.50;;
57317;SDS011;43157;50.982;18.132;2023-03-05T11:16:30;20.00;;;6.80;;
57317;SDS011;43157;50.982;18.132;2023-03-05T11:19:11;15.40;;;5.30;;
57317;SDS011;43157;50.982;18.132;2023-03-05T11:21:40;14.60;;;6.20;;
57317;SDS011;43157;50.982;18.132;2023-03-05T11:24:16;18.60;;;8.60;;
57317;SDS011;43157;50.982;18.132;2023-03-05T11:26:53;21.90;;;9.10;;
57317;SDS011;43157;50.982;18.132;2023-03-05T11:29:22;28.90;;;10.90;;
57317;SDS011;43157;50.982;18.132;2023-03-05T11:31:49;24.80;;;9.80;;
57317;SDS011;43157;50.982;18.132;2023-03-05T11:36:57;19.00;;;7.20;;
57317;SDS011;43157;50.982;18.132;2023-03-05T11:39:29;18.60;;;6.00;;
57317;SDS011;43157;50.982;18.132;2023-03-05T11:41:58;19.20;;;6.60;;
57317;SDS011;43157;50.982;18.132;2023-03-05T11:50:18;20.40;;;6.70;;
57317;SDS011;43157;50.982;18.132;2023-03-05T11:52:46;20.30;;;8.30;;
57317;SDS011;43157;50.982;18.132;2023-03-05T12:01:17;18.50;;;5.30;;
57317;SDS011;43157;50.982;18.132;2023-03-05T12:03:45;13.80;;;4.40;;
57317;SDS011;43157;50.982;18.132;2023-03-05T12:12:05;22.10;;;8.10;;
57317;SDS011;43157;50.982;18.132;2023-03-05T12:23:22;15.50;;;4.80;;
57317;SDS011;43157;50.982;18.132;2023-03-05T12:25:48;12.50;;;3.40;;
57317;SDS011;43157;50.982;18.132;2023-03-05T12:33:36;16.10;;;4.60;;
57317;SDS011;43157;50.982;18.132;2023-03-05T12:51:52;22.80;;;6.70;;
57317;SDS011;43157;50.982;18.132;2023-03-05T12:57:05;20.10;;;7.30;;
57317;SDS011;43157;50.982;18.132;2023-03-05T13:00:13;22.00;;;6.30;;
57317;SDS011;43157;50.982;18.132;2023-03-05T13:02:45;17.40;;;6.60;;
57317;SDS011;43157;50.982;18.132;2023-03-05T13:05:28;20.60;;;5.80;;
57317;SDS011;43157;50.982;18.132;2023-03-05T13:10:42;22.50;;;7.90;;
57317;SDS011;43157;50.982;18.132;2023-03-05T13:13:13;17.50;;;6.30;;
57317;SDS011;43157;50.982;18.132;2023-03-05T13:15:43;18.80;;;7.30;;
57317;SDS011;43157;50.982;18.132;2023-03-05T13:18:14;17.20;;;5.90;;
57317;SDS011;43157;50.982;18.132;2023-03-05T13:20:45;22.10;;;7.10;;
57317;SDS011;43157;50.982;18.132;2023-03-05T13:28:25;25.20;;;7.10;;
57317;SDS011;43157;50.982;18.132;2023-03-05T13:30:52;19.90;;;7.80;;
57317;SDS011;43157;50.982;18.132;2023-03-05T13:33:21;17.60;;;4.50;;
57317;SDS011;43157;50.982;18.132;2023-03-05T13:35:58;33.40;;;11.70;;
57317;SDS011;43157;50.982;18.132;2023-03-05T13:38:30;19.90;;;7.70;;
57317;SDS011;43157;50.982;18.132;2023-03-05T13:41:02;18.10;;;5.10;;
57317;SDS011;43157;50.982;18.132;2023-03-05T13:43:29;19.70;;;6.70;;
57317;SDS011;43157;50.982;18.132;2023-03-05T13:45:54;16.80;;;6.50;;
57317;SDS011;43157;50.982;18.132;2023-03-05T13:48:24;17.50;;;5.70;;
57317;SDS011;43157;50.982;18.132;2023-03-05T13:50:55;17.50;;;5.60;;
57317;SDS011;43157;50.982;18.132;2023-03-05T13:53:23;25.70;;;7.10;;
57317;SDS011;43157;50.982;18.132;2023-03-05T13:55:51;21.70;;;7.10;;
57317;SDS011;43157;50.982;18.132;2023-03-05T14:04:21;21.90;;;8.10;;
57317;SDS011;43157;50.982;18.132;2023-03-05T14:09:28;18.30;;;6.80;;
57317;SDS011;43157;50.982;18.132;2023-03-05T14:14:28;12.30;;;4.30;;
57317;SDS011;43157;50.982;18.132;2023-03-05T14:17:18;15.60;;;5.10;;
57317;SDS011;43157;50.982;18.132;2023-03-05T14:20:06;15.80;;;4.90;;
57317;SDS011;43157;50.982;18.132;2023-03-05T14:22:36;23.10;;;8.10;;
57317;SDS011;43157;50.982;18.132;2023-03-05T14:25:03;17.00;;;6.20;;
57317;SDS011;43157;50.982;18.132;2023-03-05T14:27:32;14.70;;;4.90;;
57317;SDS011;43157;50.982;18.132;2023-03-05T14:29:59;12.20;;;4.80;;
57317;SDS011;43157;50.982;18.132;2023-03-05T14:32:29;18.70;;;6.00;;
57317;SDS011;43157;50.982;18.132;2023-03-05T14:35:00;21.40;;;6.00;;
57317;SDS011;43157;50.982;18.132;2023-03-05T14:37:39;15.80;;;4.00;;
57317;SDS011;43157;50.982;18.132;2023-03-05T14:45:19;15.30;;;5.70;;
57317;SDS011;43157;50.982;18.132;2023-03-05T14:47:46;22.40;;;8.80;;
57317;SDS011;43157;50.982;18.132;2023-03-05T14:50:17;19.70;;;6.80;;
57317;SDS011;43157;50.982;18.132;2023-03-05T14:52:45;20.10;;;6.90;;
57317;SDS011;43157;50.982;18.132;2023-03-05T14:55:17;19.30;;;6.70;;
57317;SDS011;43157;50.982;18.132;2023-03-05T14:57:44;23.10;;;9.00;;
57317;SDS011;43157;50.982;18.132;2023-03-05T15:00:16;16.40;;;4.60;;
57317;SDS011;43157;50.982;18.132;2023-03-05T15:02:43;23.80;;;7.40;;
57317;SDS011;43157;50.982;18.132;2023-03-05T15:05:08;19.30;;;6.60;;
57317;SDS011;43157;50.982;18.132;2023-03-05T15:07:35;21.70;;;7.50;;
57317;SDS011;43157;50.982;18.132;2023-03-05T15:10:01;36.20;;;12.80;;
57317;SDS011;43157;50.982;18.132;2023-03-05T15:12:26;36.80;;;12.50;;
57317;SDS011;43157;50.982;18.132;2023-03-05T15:14:53;33.60;;;9.80;;
57317;SDS011;43157;50.982;18.132;2023-03-05T15:17:30;30.10;;;11.00;;
57317;SDS011;43157;50.982;18.132;2023-03-05T15:19:58;29.30;;;10.60;;
57317;SDS011;43157;50.982;18.132;2023-03-05T15:22:26;23.90;;;9.00;;
57317;SDS011;43157;50.982;18.132;2023-03-05T15:24:52;20.10;;;8.30;;
57317;SDS011;43157;50.982;18.132;2023-03-05T15:27:17;21.10;;;8.30;;
57317;SDS011;43157;50.982;18.132;2023-03-05T15:29:43;28.40;;;13.00;;
57317;SDS011;43157;50.982;18.132;2023-03-05T15:32:09;30.00;;;10.10;;
57317;SDS011;43157;50.982;18.132;2023-03-05T15:34:34;35.20;;;15.80;;
57317;SDS011;43157;50.982;18.132;2023-03-05T15:37:01;30.70;;;11.80;;
57317;SDS011;43157;50.982;18.132;2023-03-05T15:39:27;38.30;;;16.70;;
57317;SDS011;43157;50.982;18.132;2023-03-05T15:41:54;55.40;;;26.00;;
57317;SDS011;43157;50.982;18.132;2023-03-05T15:44:20;34.10;;;14.50;;
57317;SDS011;43157;50.982;18.132;2023-03-05T15:46:46;68.40;;;28.50;;
57317;SDS011;43157;50.982;18.132;2023-03-05T15:49:12;80.50;;;32.10;;
57317;SDS011;43157;50.982;18.132;2023-03-05T15:51:38;33.00;;;11.40;;
57317;SDS011;43157;50.982;18.132;2023-03-05T15:54:04;36.60;;;15.00;;
57317;SDS011;43157;50.982;18.132;2023-03-05T15:56:29;39.60;;;14.90;;
57317;SDS011;43157;50.982;18.132;2023-03-05T15:58:55;158.10;;;60.00;;
57317;SDS011;43157;50.982;18.132;2023-03-05T16:01:21;108.30;;;39.70;;
57317;SDS011;43157;50.982;18.132;2023-03-05T16:03:48;87.30;;;37.00;;
57317;SDS011;43157;50.982;18.132;2023-03-05T16:06:14;39.40;;;16.60;;
57317;SDS011;43157;50.982;18.132;2023-03-05T16:08:44;42.80;;;15.30;;
57317;SDS011;43157;50.982;18.132;2023-03-05T16:11:10;32.60;;;10.60;;
57317;SDS011;43157;50.982;18.132;2023-03-05T16:13:37;57.40;;;21.20;;
57317;SDS011;43157;50.982;18.132;2023-03-05T16:16:03;39.00;;;13.60;;
57317;SDS011;43157;50.982;18.132;2023-03-05T16:18:30;42.30;;;17.10;;
57317;SDS011;43157;50.982;18.132;2023-03-05T16:20:58;21.30;;;8.40;;
57317;SDS011;43157;50.982;18.132;2023-03-05T16:23:23;48.20;;;18.70;;
57317;SDS011;43157;50.982;18.132;2023-03-05T16:25:49;36.50;;;13.70;;
57317;SDS011;43157;50.982;18.132;2023-03-05T16:28:15;36.20;;;14.90;;
57317;SDS011;43157;50.982;18.132;2023-03-05T16:30:40;34.70;;;14.40;;
57317;SDS011;43157;50.982;18.132;2023-03-05T16:33:06;57.60;;;20.50;;
57317;SDS011;43157;50.982;18.132;2023-03-05T16:35:32;54.00;;;19.10;;
57317;SDS011;43157;50.982;18.132;2023-03-05T16:37:57;34.50;;;12.20;;
57317;SDS011;43157;50.982;18.132;2023-03-05T16:40:23;31.20;;;10.60;;